Hakuho Maru — JDSS — position and weather

sailwx.info

Track history (hours):
 
Tides and Currents Weather Stations Pressure Air Temp Water Temp Dewpoint Dewpoint Depression Visibility Wind Speed Wind Dir Waves Ship Positions

Oceanographic research ship Hakuho Maru (Japan)

Detailed information on ship capabilities available from University of Delaware's Ocean Information Center.

Last reported at 2017-Oct-17 10:55 UTC. Time now 2017-Oct-17 15:00 UTC.
Position N 34°52' E 140°06'.

Length 100 m; beam 16.2 m; draft 6 m.

Type: Other ship. MMSI: 431010000.

Date/timePositionNaut miles runAvg speedWind from/ knotsBaromVisibWave heightAir tempDewpointWater temp
2017-Oct-17 10:55N 34°52' E 140°06'1113.3
2017-Oct-17 10:06N 34°50' E 139°53'213.0
2017-Oct-17 09:59N 34°50' E 139°51'713.7
2017-Oct-17 09:31N 34°53' E 139°44'713.3
2017-Oct-17 09:00N 34°59' E 139°41'714.8
2017-Oct-17 08:30N 35°06' E 139°44'714.5
2017-Oct-17 08:00N 35°13' E 139°46'612.1
2017-Oct-17 07:30N 35°19' E 139°43'612.0
2017-Oct-17 07:00N 35°25' E 139°44'713.2
2017-Oct-17 06:30N 35°29' E 139°50'612.0
2017-Oct-17 06:00N 35°35' E 139°51'  
2017-Oct-13 13:33N 35°38' E 139°48'  
Track history (hours):
 
Tides and Currents Weather Stations Pressure Air Temp Water Temp Dewpoint Dewpoint Depression Visibility Wind Speed Wind Dir Waves Ship Positions

Oceanographic research ship Hakuho Maru (Japan)

Detailed information on ship capabilities available from University of Delaware's Ocean Information Center.

Last reported at 2017-Oct-17 10:55 UTC. Time now 2017-Oct-17 15:00 UTC.
Position N 34°52' E 140°06'.

Length 100 m; beam 16.2 m; draft 6 m.

Type: Other ship. MMSI: 431010000.

Date/timePositionNaut miles runAvg speedWind from/ knotsBaromVisibWave heightAir tempDewpointWater temp
2017-Oct-17 10:55N 34°52' E 140°06'1113.3
2017-Oct-17 10:06N 34°50' E 139°53'213.0
2017-Oct-17 09:59N 34°50' E 139°51'713.7
2017-Oct-17 09:31N 34°53' E 139°44'713.3
2017-Oct-17 09:00N 34°59' E 139°41'714.8
2017-Oct-17 08:30N 35°06' E 139°44'714.5
2017-Oct-17 08:00N 35°13' E 139°46'612.1
2017-Oct-17 07:30N 35°19' E 139°43'612.0
2017-Oct-17 07:00N 35°25' E 139°44'713.2
2017-Oct-17 06:30N 35°29' E 139°50'612.0
2017-Oct-17 06:00N 35°35' E 139°51'  
2017-Oct-13 13:33N 35°38' E 139°48'  

Dump ship's entire track history